createdAt,value
2022-10-31T00:01:24.073Z,101291.72
2022-10-31T00:03:53.228Z,101282.63
2022-10-31T00:06:21.114Z,101278.72
2022-10-31T00:08:49.592Z,101277.91
2022-10-31T00:11:17.363Z,101284.94
2022-10-31T00:13:45.139Z,101293.03
2022-10-31T00:16:17.077Z,101291.81
2022-10-31T00:18:44.830Z,101295.13
2022-10-31T00:21:13.862Z,101299.22
2022-10-31T00:23:41.542Z,101294.53
2022-10-31T00:26:09.261Z,101302.25
2022-10-31T00:28:36.972Z,101297.19
2022-10-31T00:31:06.566Z,101291.88
2022-10-31T00:33:35.347Z,101301.50
2022-10-31T00:36:03.239Z,101306.34
2022-10-31T00:38:32.426Z,101306.34
2022-10-31T00:41:00.521Z,101309.59
2022-10-31T00:43:28.487Z,101310.31
2022-10-31T00:45:56.327Z,101313.06
2022-10-31T00:48:25.971Z,101317.25
2022-10-31T00:50:54.414Z,101318.41
2022-10-31T00:53:22.471Z,101319.81
2022-10-31T00:55:51.692Z,101316.69
2022-10-31T00:58:19.416Z,101319.69
2022-10-31T01:00:52.008Z,101319.75
2022-10-31T01:03:19.787Z,101323.00
2022-10-31T01:05:47.537Z,101325.00
2022-10-31T01:08:15.290Z,101330.03
2022-10-31T01:10:44.632Z,101329.03
2022-10-31T01:13:13.826Z,101321.38
2022-10-31T01:15:41.592Z,101330.75
2022-10-31T01:18:09.329Z,101329.47
2022-10-31T01:20:37.899Z,101330.50
2022-10-31T01:23:05.608Z,101332.56
2022-10-31T01:25:33.353Z,101331.06
2022-10-31T01:28:01.227Z,101327.06
2022-10-31T01:30:30.557Z,101329.94
2022-10-31T01:32:59.452Z,101317.19
2022-10-31T01:35:27.516Z,101319.94
2022-10-31T01:37:55.314Z,101329.53
2022-10-31T01:40:23.099Z,101331.53
2022-10-31T01:42:51.323Z,101331.44
2022-10-31T01:45:20.652Z,101330.66
2022-10-31T01:47:50.513Z,101324.94
2022-10-31T01:50:27.553Z,101320.63
2022-10-31T01:52:55.576Z,101320.50
2022-10-31T01:55:27.798Z,101330.88
2022-10-31T01:58:01.283Z,101336.38
2022-10-31T02:00:29.398Z,101339.38
2022-10-31T02:03:00.527Z,101341.75
2022-10-31T02:05:30.577Z,101337.44
2022-10-31T02:08:00.812Z,101337.00
2022-10-31T02:10:34.147Z,101337.56
2022-10-31T02:13:04.942Z,101330.38
2022-10-31T02:15:33.499Z,101335.69
2022-10-31T02:18:03.071Z,101343.06
2022-10-31T02:20:34.690Z,101334.56
2022-10-31T02:23:22.921Z,101339.28
2022-10-31T02:26:09.966Z,101335.41
2022-10-31T02:28:54.256Z,101336.56
2022-10-31T02:31:30.137Z,101335.41
2022-10-31T02:34:00.318Z,101330.16
2022-10-31T02:36:34.039Z,101333.66
2022-10-31T02:39:08.696Z,101332.31
2022-10-31T02:41:50.467Z,101333.03
2022-10-31T02:44:24.159Z,101336.66
2022-10-31T02:46:55.633Z,101343.53
2022-10-31T02:49:26.822Z,101345.53
2022-10-31T02:51:54.624Z,101352.59
2022-10-31T02:54:25.183Z,101356.50
2022-10-31T02:56:59.173Z,101354.00
2022-10-31T02:59:27.354Z,101349.53
2022-10-31T03:02:17.065Z,101355.72
2022-10-31T03:05:08.991Z,101353.56
2022-10-31T03:07:44.509Z,101356.09
2022-10-31T03:10:18.473Z,101365.44
2022-10-31T03:12:52.201Z,101364.75
2022-10-31T03:15:25.051Z,101367.00
2022-10-31T03:18:00.203Z,101368.94
2022-10-31T03:20:33.400Z,101374.16
2022-10-31T03:23:03.198Z,101366.00
2022-10-31T03:25:31.672Z,101373.53
2022-10-31T03:28:03.685Z,101376.84
2022-10-31T03:30:35.944Z,101374.34
2022-10-31T03:33:07.733Z,101376.28
2022-10-31T03:35:37.089Z,101378.59
2022-10-31T03:38:07.796Z,101386.97
2022-10-31T03:40:39.860Z,101384.50
2022-10-31T03:43:09.947Z,101390.41
2022-10-31T03:45:42.946Z,101395.63
2022-10-31T03:48:12.324Z,101401.63
2022-10-31T03:50:42.340Z,101395.03
2022-10-31T03:53:15.191Z,101398.59
2022-10-31T03:55:48.309Z,101406.91
2022-10-31T03:58:22.478Z,101411.16
2022-10-31T04:00:53.052Z,101416.06
2022-10-31T04:03:25.244Z,101405.66
2022-10-31T04:05:56.136Z,101412.50
2022-10-31T04:08:27.081Z,101405.91
2022-10-31T04:10:56.978Z,101407.31
2022-10-31T04:13:26.419Z,101405.56
2022-10-31T04:16:03.578Z,101409.69
2022-10-31T04:18:32.833Z,101415.00
2022-10-31T04:21:05.741Z,101402.63
2022-10-31T04:23:34.998Z,101406.00
2022-10-31T04:26:10.507Z,101414.59
2022-10-31T04:28:38.250Z,101411.56
2022-10-31T04:31:06.962Z,101417.84
2022-10-31T04:33:39.731Z,101419.00
2022-10-31T04:36:07.945Z,101419.25
2022-10-31T04:38:36.092Z,101428.56
2022-10-31T04:41:10.192Z,101420.00
2022-10-31T04:43:52.474Z,101427.06
2022-10-31T04:46:20.954Z,101428.41
2022-10-31T04:48:50.584Z,101431.69
2022-10-31T04:51:18.884Z,101424.88
2022-10-31T04:53:46.621Z,101426.16
2022-10-31T04:56:40.516Z,101429.00
2022-10-31T04:59:15.593Z,101432.38
2022-10-31T05:01:51.210Z,101427.69
2022-10-31T05:04:25.566Z,101431.09
2022-10-31T05:06:53.697Z,101430.56
2022-10-31T05:09:21.564Z,101429.97
2022-10-31T05:11:49.345Z,101434.16
2022-10-31T05:14:34.499Z,101431.78
2022-10-31T05:17:20.865Z,101433.63
2022-10-31T05:20:27.037Z,101439.97
2022-10-31T05:23:06.980Z,101439.22
2022-10-31T05:25:35.374Z,101440.22
2022-10-31T05:28:05.591Z,101445.25
2022-10-31T05:30:35.745Z,101445.72
2022-10-31T05:33:05.233Z,101450.31
2022-10-31T05:36:11.152Z,101454.63
2022-10-31T05:38:57.447Z,101446.72
2022-10-31T05:41:27.441Z,101446.16
2022-10-31T05:44:04.244Z,101451.75
2022-10-31T05:46:35.687Z,101453.53
2022-10-31T05:49:23.705Z,101446.63
2022-10-31T05:52:11.460Z,101447.38
2022-10-31T05:54:46.637Z,101451.25
2022-10-31T05:57:14.450Z,101453.00
2022-10-31T05:59:42.221Z,101454.81
2022-10-31T06:02:10.046Z,101451.94
2022-10-31T06:04:56.649Z,101445.66
2022-10-31T06:07:25.952Z,101456.56
2022-10-31T06:09:54.189Z,101455.69
2022-10-31T06:12:23.132Z,101463.75
2022-10-31T06:15:10.366Z,101458.25
2022-10-31T06:17:38.431Z,101463.19
2022-10-31T06:20:25.526Z,101464.91
2022-10-31T06:23:03.967Z,101464.16
2022-10-31T06:25:34.000Z,101465.66
2022-10-31T06:28:02.014Z,101463.19
2022-10-31T06:30:38.946Z,101468.47
2022-10-31T06:33:07.367Z,101472.84
2022-10-31T06:35:39.636Z,101478.84
2022-10-31T06:38:08.795Z,101487.63
2022-10-31T06:40:40.845Z,101491.91
2022-10-31T06:43:21.385Z,101489.88
2022-10-31T06:45:50.488Z,101494.47
2022-10-31T06:48:27.578Z,101494.47
2022-10-31T06:51:21.319Z,101492.25
2022-10-31T06:53:53.185Z,101507.56
2022-10-31T06:56:20.938Z,101502.94
2022-10-31T06:58:52.847Z,101500.69
2022-10-31T07:01:33.363Z,101495.25
2022-10-31T07:04:02.827Z,101498.53
2022-10-31T07:06:33.777Z,101493.72
2022-10-31T07:09:02.959Z,101503.03
2022-10-31T07:11:30.742Z,101514.34
2022-10-31T07:13:59.793Z,101518.41
2022-10-31T07:16:27.549Z,101514.53
2022-10-31T07:18:55.419Z,101515.94
2022-10-31T07:21:23.356Z,101518.25
2022-10-31T07:23:51.563Z,101513.50
2022-10-31T07:26:39.093Z,101515.94
2022-10-31T07:29:07.023Z,101523.97
2022-10-31T07:31:34.870Z,101521.19
2022-10-31T07:34:10.351Z,101525.16
2022-10-31T07:37:10.180Z,101527.72
2022-10-31T07:39:38.066Z,101530.84
2022-10-31T07:42:09.831Z,101527.50
2022-10-31T07:44:39.062Z,101532.75
2022-10-31T07:47:25.091Z,101528.06
2022-10-31T07:50:16.199Z,101533.88
2022-10-31T07:53:03.111Z,101538.50
2022-10-31T07:55:53.731Z,101534.63
2022-10-31T07:58:22.907Z,101544.56
2022-10-31T08:00:52.112Z,101546.19
2022-10-31T08:03:34.668Z,101540.41
2022-10-31T08:06:11.190Z,101546.50
2022-10-31T08:08:51.162Z,101554.47
2022-10-31T08:11:20.045Z,101547.09
2022-10-31T08:13:50.556Z,101542.28
2022-10-31T08:16:20.730Z,101546.78
2022-10-31T08:19:02.071Z,101549.38
2022-10-31T08:21:31.961Z,101552.38
2022-10-31T08:24:10.894Z,101552.06
2022-10-31T08:26:52.392Z,101562.81
2022-10-31T08:29:24.445Z,101563.81
2022-10-31T08:31:52.757Z,101559.72
2022-10-31T08:34:39.099Z,101558.50
2022-10-31T08:37:44.923Z,101562.00
2022-10-31T08:40:14.081Z,101557.72
2022-10-31T08:42:54.993Z,101563.72
2022-10-31T08:45:24.130Z,101564.41
2022-10-31T08:47:52.698Z,101569.16
2022-10-31T08:50:20.543Z,101566.53
2022-10-31T08:53:04.172Z,101555.91
2022-10-31T08:55:35.990Z,101558.28
2022-10-31T08:58:06.917Z,101561.41
2022-10-31T09:00:45.688Z,101560.91
2022-10-31T09:03:18.827Z,101566.22
2022-10-31T09:05:47.705Z,101576.47
2022-10-31T09:08:17.142Z,101572.28
2022-10-31T09:10:47.461Z,101568.72
2022-10-31T09:13:21.086Z,101574.09
2022-10-31T09:16:22.630Z,101573.59
2022-10-31T09:18:50.361Z,101581.44
2022-10-31T09:21:18.236Z,101586.50
2022-10-31T09:23:47.688Z,101579.47
2022-10-31T09:26:16.442Z,101583.72
2022-10-31T09:28:58.651Z,101586.19
2022-10-31T09:31:28.184Z,101585.28
2022-10-31T09:34:01.733Z,101586.69
2022-10-31T09:36:40.153Z,101585.84
2022-10-31T09:39:11.338Z,101586.84
2022-10-31T09:41:57.074Z,101590.03
2022-10-31T09:44:31.425Z,101590.09
2022-10-31T09:47:09.787Z,101585.78
2022-10-31T09:49:54.618Z,101602.53
2022-10-31T09:52:25.453Z,101601.06
2022-10-31T09:54:56.193Z,101597.56
2022-10-31T09:57:27.840Z,101593.56
2022-10-31T09:59:55.978Z,101593.69
2022-10-31T10:02:29.179Z,101594.97
2022-10-31T10:04:59.365Z,101611.53
2022-10-31T10:07:35.011Z,101600.66
2022-10-31T10:10:35.430Z,101603.88
2022-10-31T10:13:42.042Z,101588.13
2022-10-31T10:16:22.105Z,101585.16
2022-10-31T10:19:06.082Z,101577.66
2022-10-31T10:21:43.324Z,101578.25
2022-10-31T10:24:19.733Z,101578.50
2022-10-31T10:26:54.449Z,101582.94
2022-10-31T10:29:32.091Z,101581.25
2022-10-31T10:32:03.354Z,101576.50
2022-10-31T10:34:35.538Z,101569.75
2022-10-31T10:37:06.453Z,101561.38
2022-10-31T10:39:39.004Z,101576.50
2022-10-31T10:42:29.868Z,101562.91
2022-10-31T10:45:15.622Z,101561.81
2022-10-31T10:47:44.444Z,101572.56
2022-10-31T10:50:17.019Z,101563.66
2022-10-31T10:52:53.512Z,101565.97
2022-10-31T10:55:29.908Z,101565.09
2022-10-31T10:57:59.183Z,101561.47
2022-10-31T11:00:29.604Z,101567.09
2022-10-31T11:02:57.774Z,101566.28
2022-10-31T11:05:32.035Z,101570.47
2022-10-31T11:07:59.729Z,101563.09
2022-10-31T11:10:27.913Z,101564.44
2022-10-31T11:13:07.823Z,101555.78
2022-10-31T11:15:39.479Z,101558.50
2022-10-31T11:18:07.520Z,101550.75
2022-10-31T11:20:37.739Z,101562.69
2022-10-31T11:23:17.289Z,101550.13
2022-10-31T11:25:50.623Z,101554.84
2022-10-31T11:28:18.577Z,101546.75
2022-10-31T11:30:48.650Z,101540.41
2022-10-31T11:33:21.452Z,101542.75
2022-10-31T11:35:53.574Z,101543.59
2022-10-31T11:38:27.701Z,101538.94
2022-10-31T11:40:57.105Z,101547.06
2022-10-31T11:43:25.060Z,101539.06
2022-10-31T11:45:52.882Z,101532.63
2022-10-31T11:48:22.499Z,101530.38
2022-10-31T11:50:53.845Z,101533.06
2022-10-31T11:53:26.628Z,101534.63
2022-10-31T11:56:04.209Z,101539.53
2022-10-31T11:58:32.180Z,101535.06
2022-10-31T12:00:59.969Z,101535.53
2022-10-31T12:03:44.840Z,101533.28
2022-10-31T12:06:16.888Z,101529.59
2022-10-31T12:08:44.612Z,101533.72
2022-10-31T12:11:33.732Z,101524.66
2022-10-31T12:14:14.813Z,101525.66
2022-10-31T12:16:49.924Z,101517.53
2022-10-31T12:19:26.956Z,101523.38
2022-10-31T12:22:05.016Z,101514.53
2022-10-31T12:24:46.215Z,101519.09
2022-10-31T12:27:22.647Z,101513.47
2022-10-31T12:30:02.726Z,101528.25
2022-10-31T12:32:38.682Z,101509.59
2022-10-31T12:35:28.566Z,101500.41
2022-10-31T12:38:09.630Z,101495.66
2022-10-31T12:40:50.004Z,101504.69
2022-10-31T12:43:28.994Z,101503.28
2022-10-31T12:45:57.884Z,101499.63
2022-10-31T12:48:54.045Z,101498.56
2022-10-31T12:51:29.871Z,101484.19
2022-10-31T12:54:13.389Z,101491.19
2022-10-31T12:56:49.499Z,101491.81
2022-10-31T12:59:23.775Z,101488.00
2022-10-31T13:01:53.592Z,101483.41
2022-10-31T13:04:39.275Z,101484.19
2022-10-31T13:07:10.193Z,101483.84
2022-10-31T13:09:42.141Z,101477.72
2022-10-31T13:12:11.958Z,101480.88
2022-10-31T13:14:44.075Z,101484.28
2022-10-31T13:17:17.868Z,101477.00
2022-10-31T13:19:47.256Z,101476.03
2022-10-31T13:22:18.902Z,101474.09
2022-10-31T13:24:55.304Z,101472.09
2022-10-31T13:27:25.254Z,101475.19
2022-10-31T13:30:02.343Z,101470.31
2022-10-31T13:32:39.046Z,101471.31
2022-10-31T13:35:13.178Z,101468.72
2022-10-31T13:37:43.341Z,101466.56
2022-10-31T13:40:19.958Z,101464.66
2022-10-31T13:42:55.944Z,101467.66
2022-10-31T13:45:25.471Z,101465.38
2022-10-31T13:48:02.223Z,101454.63
2022-10-31T13:50:31.624Z,101458.22
2022-10-31T13:53:15.571Z,101454.00
2022-10-31T13:55:46.153Z,101456.19
2022-10-31T13:58:26.356Z,101454.03
2022-10-31T14:01:02.182Z,101449.72
2022-10-31T14:03:49.741Z,101456.63
2022-10-31T14:06:18.208Z,101451.22
2022-10-31T14:08:54.832Z,101447.66
2022-10-31T14:11:30.291Z,101442.31
2022-10-31T14:14:01.136Z,101440.22
2022-10-31T14:16:31.098Z,101442.19
2022-10-31T14:19:02.666Z,101440.84
2022-10-31T14:21:31.758Z,101437.28
2022-10-31T14:23:59.799Z,101451.06
2022-10-31T14:26:37.240Z,101443.44
2022-10-31T14:29:26.813Z,101443.75
2022-10-31T14:31:56.656Z,101438.19
2022-10-31T14:34:26.364Z,101437.75
2022-10-31T14:37:04.656Z,101433.22
2022-10-31T14:39:35.053Z,101428.47
2022-10-31T14:42:15.756Z,101422.34
2022-10-31T14:44:58.034Z,101426.31
2022-10-31T14:47:33.750Z,101428.16
2022-10-31T14:50:14.826Z,101417.53
2022-10-31T14:52:43.233Z,101423.16
2022-10-31T14:55:14.280Z,101423.28
2022-10-31T14:57:54.226Z,101428.72
2022-10-31T15:00:23.510Z,101419.19
2022-10-31T15:02:59.203Z,101418.34
2022-10-31T15:05:28.848Z,101420.22
2022-10-31T15:07:57.934Z,101416.28
2022-10-31T15:10:27.270Z,101420.09
2022-10-31T15:12:56.354Z,101414.28
2022-10-31T15:15:25.683Z,101417.00
2022-10-31T15:17:57.356Z,101419.09
2022-10-31T15:20:27.160Z,101416.50
2022-10-31T15:22:57.543Z,101421.03
2022-10-31T15:25:26.812Z,101417.75
2022-10-31T15:27:55.969Z,101417.06
2022-10-31T15:30:25.969Z,101419.16
2022-10-31T15:32:59.877Z,101413.22
2022-10-31T15:35:29.821Z,101413.22
2022-10-31T15:37:58.837Z,101412.44
2022-10-31T15:40:29.065Z,101408.78
2022-10-31T15:43:00.095Z,101401.63
2022-10-31T15:45:29.558Z,101401.69
2022-10-31T15:47:59.842Z,101400.78
2022-10-31T15:50:32.971Z,101401.19
2022-10-31T15:53:01.729Z,101401.31
2022-10-31T15:55:33.267Z,101409.88
2022-10-31T15:58:05.315Z,101416.09
2022-10-31T16:00:34.301Z,101411.84
2022-10-31T16:03:06.550Z,101419.78
2022-10-31T16:05:39.292Z,101415.47
2022-10-31T16:08:25.683Z,101411.72
2022-10-31T16:10:53.758Z,101412.69
2022-10-31T16:13:26.786Z,101411.41
2022-10-31T16:16:21.388Z,101411.97
2022-10-31T16:18:44.949Z,101409.50
2022-10-31T16:21:12.823Z,101409.41
2022-10-31T16:23:47.407Z,101415.97
2022-10-31T16:26:17.638Z,101416.13
2022-10-31T16:29:03.311Z,101424.03
2022-10-31T16:31:38.432Z,101416.59
2022-10-31T16:34:13.205Z,101418.94
2022-10-31T16:36:41.035Z,101412.56
2022-10-31T16:39:09.349Z,101414.63
2022-10-31T16:41:40.774Z,101413.13
2022-10-31T16:44:17.221Z,101405.47
2022-10-31T16:46:44.938Z,101405.75
2022-10-31T16:49:12.879Z,101403.00
2022-10-31T16:51:40.617Z,101405.88
2022-10-31T16:54:10.758Z,101402.00
2022-10-31T16:56:39.521Z,101396.91
2022-10-31T16:59:16.104Z,101388.69
2022-10-31T17:01:45.209Z,101405.28
2022-10-31T17:04:15.347Z,101395.81
2022-10-31T17:06:43.336Z,101393.47
2022-10-31T17:09:11.131Z,101389.78
2022-10-31T17:11:45.401Z,101397.25
2022-10-31T17:14:18.564Z,101402.59
2022-10-31T17:16:46.345Z,101397.72
2022-10-31T17:19:14.582Z,101397.06
2022-10-31T17:21:42.407Z,101388.50
2022-10-31T17:24:13.494Z,101389.31
2022-10-31T17:26:41.648Z,101393.66
2022-10-31T17:29:09.700Z,101401.72
2022-10-31T17:31:39.360Z,101394.56
2022-10-31T17:34:08.575Z,101391.66
2022-10-31T17:36:36.798Z,101385.03
2022-10-31T17:39:07.382Z,101387.59
2022-10-31T17:41:35.110Z,101381.91
2022-10-31T17:44:03.201Z,101379.41
2022-10-31T17:46:30.907Z,101374.41
2022-10-31T17:49:01.845Z,101373.78
2022-10-31T17:51:29.605Z,101377.44
2022-10-31T17:53:58.465Z,101378.34
2022-10-31T17:56:26.357Z,101385.22
2022-10-31T17:58:54.182Z,101374.72
2022-10-31T18:01:21.990Z,101386.78
2022-10-31T18:03:49.823Z,101371.06
2022-10-31T18:06:18.932Z,101381.84
2022-10-31T18:08:46.848Z,101379.13
2022-10-31T18:11:17.938Z,101382.72
2022-10-31T18:13:45.688Z,101371.22
2022-10-31T18:16:14.781Z,101378.94
2022-10-31T18:18:42.992Z,101381.19
2022-10-31T18:21:10.844Z,101377.19
2022-10-31T18:23:39.919Z,101364.19
2022-10-31T18:26:07.706Z,101372.50
2022-10-31T18:28:35.510Z,101370.53
2022-10-31T18:31:03.837Z,101374.28
2022-10-31T18:33:31.961Z,101366.22
2022-10-31T18:36:05.549Z,101362.97
2022-10-31T18:38:33.363Z,101364.34
2022-10-31T18:41:03.376Z,101353.22
2022-10-31T18:43:31.103Z,101354.50
2022-10-31T18:46:03.446Z,101343.03
2022-10-31T18:48:31.476Z,101348.06
2022-10-31T18:50:59.304Z,101353.03
2022-10-31T18:53:27.057Z,101342.75
2022-10-31T18:55:54.905Z,101354.50
2022-10-31T18:58:23.960Z,101355.09
2022-10-31T19:00:51.875Z,101345.13
2022-10-31T19:03:23.421Z,101341.34
2022-10-31T19:05:56.794Z,101343.13
2022-10-31T19:08:24.667Z,101345.69
2022-10-31T19:10:52.890Z,101345.50
2022-10-31T19:13:20.648Z,101343.47
2022-10-31T19:15:49.802Z,101341.53
2022-10-31T19:18:17.527Z,101338.88
2022-10-31T19:20:45.273Z,101339.28
2022-10-31T19:23:12.985Z,101329.63
2022-10-31T19:25:40.963Z,101330.59
2022-10-31T19:28:08.979Z,101329.94
2022-10-31T19:30:36.716Z,101327.38
2022-10-31T19:33:06.757Z,101322.22
2022-10-31T19:35:34.594Z,101325.47
2022-10-31T19:38:02.604Z,101314.81
2022-10-31T19:40:30.717Z,101314.34
2022-10-31T19:42:59.783Z,101315.13
2022-10-31T19:45:27.481Z,101314.69
2022-10-31T19:47:55.233Z,101310.84
2022-10-31T19:50:24.435Z,101304.75
2022-10-31T19:52:52.206Z,101305.28
2022-10-31T19:55:19.947Z,101298.69
2022-10-31T19:58:01.300Z,101305.41
2022-10-31T20:00:29.771Z,101298.38
2022-10-31T20:02:57.497Z,101292.16
2022-10-31T20:05:26.918Z,101285.06
2022-10-31T20:07:54.652Z,101285.13
2022-10-31T20:10:22.347Z,101279.66
2022-10-31T20:12:50.166Z,101280.75
2022-10-31T20:15:20.668Z,101283.75
2022-10-31T20:17:48.449Z,101280.63
2022-10-31T20:20:16.245Z,101278.06
2022-10-31T20:22:47.245Z,101273.16
2022-10-31T20:25:14.942Z,101267.19
2022-10-31T20:27:43.239Z,101273.94
2022-10-31T20:30:11.932Z,101270.13
2022-10-31T20:32:39.835Z,101269.53
2022-10-31T20:35:08.380Z,101265.19
2022-10-31T20:37:36.143Z,101269.34
2022-10-31T20:40:05.813Z,101270.22
2022-10-31T20:42:33.593Z,101269.78
2022-10-31T20:45:01.454Z,101264.97
2022-10-31T20:47:29.265Z,101266.69
2022-10-31T20:49:57.024Z,101255.84
2022-10-31T20:52:24.716Z,101255.59
2022-10-31T20:54:52.527Z,101250.69
2022-10-31T20:57:21.594Z,101258.41
2022-10-31T20:59:50.008Z,101251.94
2022-10-31T21:02:17.827Z,101257.50
2022-10-31T21:04:45.683Z,101255.94
2022-10-31T21:07:13.365Z,101250.31
2022-10-31T21:09:41.226Z,101254.78
2022-10-31T21:12:09.052Z,101244.56
2022-10-31T21:14:38.264Z,101247.75
2022-10-31T21:17:06.797Z,101250.16
2022-10-31T21:19:36.039Z,101254.69
2022-10-31T21:22:03.863Z,101254.28
2022-10-31T21:24:31.640Z,101244.38
2022-10-31T21:26:59.426Z,101239.06
2022-10-31T21:29:27.168Z,101233.72
2022-10-31T21:31:56.244Z,101238.66
2022-10-31T21:34:23.957Z,101222.38
2022-10-31T21:36:51.707Z,101223.09
2022-10-31T21:39:19.574Z,101224.13
2022-10-31T21:41:47.330Z,101224.13
2022-10-31T21:44:15.096Z,101222.06
2022-10-31T21:46:43.112Z,101222.88
2022-10-31T21:49:12.561Z,101215.69
2022-10-31T21:51:40.890Z,101206.81
2022-10-31T21:54:27.763Z,101205.31
2022-10-31T21:56:55.582Z,101198.66
2022-10-31T21:59:23.439Z,101192.94
2022-10-31T22:01:51.558Z,101205.72
2022-10-31T22:04:21.038Z,101202.22
2022-10-31T22:06:48.758Z,101204.94
2022-10-31T22:09:17.271Z,101203.38
2022-10-31T22:11:44.972Z,101202.22
2022-10-31T22:14:13.655Z,101206.78
2022-10-31T22:16:42.034Z,101203.50
2022-10-31T22:19:12.161Z,101204.41
2022-10-31T22:21:43.692Z,101195.94
2022-10-31T22:24:11.913Z,101195.41
2022-10-31T22:26:40.312Z,101197.53
2022-10-31T22:29:11.693Z,101196.28
2022-10-31T22:31:40.972Z,101192.59
2022-10-31T22:34:08.808Z,101196.75
2022-10-31T22:36:37.735Z,101193.19
2022-10-31T22:39:07.660Z,101186.63
2022-10-31T22:41:36.895Z,101186.03
2022-10-31T22:44:05.462Z,101186.25
2022-10-31T22:46:35.199Z,101176.06
2022-10-31T22:49:05.430Z,101169.06
2022-10-31T22:51:34.624Z,101163.53
2022-10-31T22:54:02.695Z,101156.56
2022-10-31T22:56:33.167Z,101149.25
2022-10-31T22:59:01.873Z,101141.91
2022-10-31T23:01:31.416Z,101142.38
2022-10-31T23:03:59.560Z,101136.75
2022-10-31T23:06:30.055Z,101133.09
2022-10-31T23:08:57.797Z,101135.00
2022-10-31T23:11:27.284Z,101131.28
2022-10-31T23:14:16.118Z,101129.69
2022-10-31T23:16:45.884Z,101127.16
2022-10-31T23:19:16.229Z,101137.81
2022-10-31T23:21:55.878Z,101129.03
2022-10-31T23:24:25.268Z,101123.53
2022-10-31T23:27:11.212Z,101119.78
2022-10-31T23:29:45.408Z,101110.31
2022-10-31T23:32:17.160Z,101113.00
2022-10-31T23:34:45.664Z,101117.19
2022-10-31T23:37:13.453Z,101113.28
2022-10-31T23:39:41.678Z,101106.16
2022-10-31T23:42:09.963Z,101103.19
2022-10-31T23:44:37.768Z,101096.66
2022-10-31T23:47:07.510Z,101089.69
2022-10-31T23:49:35.430Z,101079.56
2022-10-31T23:52:03.731Z,101080.50
2022-10-31T23:54:31.639Z,101079.22
2022-10-31T23:56:59.698Z,101081.03
2022-10-31T23:59:28.967Z,101079.81
